Time;durP1;ratioP1;P1;durP2;ratioP2;P2;SDS_P1;SDS_P2;PMS_P1;PMS_P2;Temp;Humidity;BMP_temperature;BMP_pressure;BME280_temperature;BME280_humidity;BME280_pressure;Samples;Min_cycle;Max_cycle;Signal;HPM_P1;HPM_P2
2021/10/07 00:02:05;;;;;;;14.13;5.90;;;11.20;1.00;;;;;;5071352;28;20755;-75
2021/10/07 00:04:33;;;;;;;9.37;5.00;;;11.20;1.00;;;;;;5072128;28;20203;-75
2021/10/07 00:07:00;;;;;;;11.97;6.70;;;11.20;1.00;;;;;;5072332;28;20210;-76
2021/10/07 00:09:27;;;;;;;10.73;6.23;;;11.20;1.00;;;;;;5072268;28;20256;-75
2021/10/07 00:11:54;;;;;;;9.77;5.32;;;11.20;1.00;;;;;;5072297;28;20206;-75
2021/10/07 00:14:23;;;;;;;6.68;5.00;;;11.20;1.00;;;;;;5071568;28;20308;-75
2021/10/07 00:16:50;;;;;;;7.85;5.28;;;11.10;1.00;;;;;;5071845;28;20275;-75
2021/10/07 00:19:17;;;;;;;9.20;5.10;;;11.20;1.00;;;;;;5071182;28;20746;-75
2021/10/07 00:21:44;;;;;;;6.55;3.58;;;11.20;1.00;;;;;;5071926;28;20251;-75
2021/10/07 00:24:11;;;;;;;10.88;3.95;;;11.10;1.00;;;;;;5071394;28;20206;-75
2021/10/07 00:26:41;;;;;;;5.47;4.13;;;11.20;1.00;;;;;;5071822;28;20198;-75
2021/10/07 00:29:24;;;;;;;5.68;3.55;;;11.20;1.00;;;;;;5071429;28;20271;-75
2021/10/07 00:31:55;;;;;;;6.13;3.83;;;11.10;1.00;;;;;;5059105;28;20588;-75
2021/10/07 00:34:27;;;;;;;4.37;3.10;;;11.10;1.00;;;;;;5070804;28;20218;-75
2021/10/07 00:37:07;;;;;;;6.70;4.10;;;11.00;1.00;;;;;;5072123;28;20202;-74
2021/10/07 00:39:33;;;;;;;4.67;3.53;;;11.00;1.00;;;;;;5071450;28;20255;-74
2021/10/07 00:42:01;;;;;;;4.57;3.13;;;11.00;1.00;;;;;;5071295;28;20620;-74
2021/10/07 00:44:30;;;;;;;9.43;3.60;;;11.00;1.00;;;;;;5071928;28;20630;-74
2021/10/07 00:47:01;;;;;;;6.47;2.87;;;11.00;1.00;;;;;;5071718;28;20293;-74
2021/10/07 00:49:32;;;;;;;5.83;2.93;;;11.00;1.00;;;;;;5071153;28;20685;-74
2021/10/07 00:52:00;;;;;;;7.97;2.38;;;11.00;1.00;;;;;;5070906;28;20665;-74
2021/10/07 00:54:28;;;;;;;7.90;2.93;;;11.10;1.00;;;;;;5070589;28;20748;-73
2021/10/07 00:56:56;;;;;;;8.02;2.53;;;10.90;1.00;;;;;;5071434;28;20206;-74
2021/10/07 00:59:24;;;;;;;5.77;2.87;;;10.90;1.00;;;;;;5070612;28;20198;-74
2021/10/07 01:01:51;;;;;;;4.67;3.37;;;11.00;1.00;;;;;;5071001;28;20206;-74
2021/10/07 01:04:19;;;;;;;9.03;3.23;;;10.90;1.00;;;;;;5070337;28;20263;-73
2021/10/07 01:06:46;;;;;;;6.10;3.07;;;10.80;1.00;;;;;;5070937;28;20210;-75
2021/10/07 01:09:15;;;;;;;4.30;2.97;;;10.80;1.00;;;;;;5076973;28;20206;-75
2021/10/07 01:11:42;;;;;;;6.03;2.60;;;10.80;1.00;;;;;;5091398;28;20206;-75
2021/10/07 01:14:09;;;;;;;8.10;3.93;;;10.60;1.00;;;;;;5090000;28;20716;-76
2021/10/07 01:16:36;;;;;;;6.27;3.53;;;10.60;1.00;;;;;;5090776;28;20206;-75
2021/10/07 01:19:03;;;;;;;5.27;3.00;;;10.60;1.00;;;;;;5091019;28;20261;-76
2021/10/07 01:21:31;;;;;;;7.33;3.40;;;10.60;1.00;;;;;;5091044;28;20264;-76
2021/10/07 01:23:58;;;;;;;5.47;3.40;;;10.70;1.00;;;;;;5091264;28;20614;-74
2021/10/07 01:26:26;;;;;;;8.13;3.50;;;10.60;1.00;;;;;;5090916;28;20201;-74
2021/10/07 01:28:53;;;;;;;9.00;3.03;;;10.60;1.00;;;;;;5090676;28;20204;-74
2021/10/07 01:31:21;;;;;;;4.70;2.80;;;10.60;1.00;;;;;;5090499;28;20209;-74
2021/10/07 01:33:48;;;;;;;8.13;3.03;;;10.60;1.00;;;;;;5090724;28;20233;-73
2021/10/07 01:36:16;;;;;;;7.60;3.70;;;10.50;1.00;;;;;;5090633;28;20258;-77
2021/10/07 01:38:44;;;;;;;5.87;2.93;;;10.50;1.00;;;;;;5090934;28;20258;-77
2021/10/07 01:41:11;;;;;;;14.00;3.23;;;10.60;1.00;;;;;;5090402;28;20221;-77
2021/10/07 01:43:38;;;;;;;7.77;3.00;;;10.50;1.00;;;;;;5090252;28;20274;-76
2021/10/07 01:46:05;;;;;;;8.47;3.20;;;10.50;1.00;;;;;;5089970;28;20558;-74
2021/10/07 01:48:32;;;;;;;7.53;4.13;;;10.60;1.00;;;;;;5090725;28;20205;-74
2021/10/07 01:51:00;;;;;;;5.17;2.53;;;10.50;1.00;;;;;;5090563;28;20250;-73
2021/10/07 01:53:27;;;;;;;9.37;3.63;;;10.50;1.00;;;;;;5090933;28;20237;-74
2021/10/07 01:55:56;;;;;;;6.45;3.58;;;10.40;1.00;;;;;;5090572;28;20696;-76
2021/10/07 01:58:25;;;;;;;4.97;3.07;;;10.40;1.00;;;;;;5089952;28;20205;-75
2021/10/07 02:00:52;;;;;;;3.53;2.53;;;10.50;1.00;;;;;;5090704;28;20205;-75
2021/10/07 02:03:19;;;;;;;4.63;2.60;;;10.40;1.00;;;;;;5089976;28;20270;-76
2021/10/07 02:05:46;;;;;;;13.20;2.80;;;10.30;1.00;;;;;;5091199;28;20201;-75
2021/10/07 02:08:13;;;;;;;7.83;3.67;;;10.30;1.00;;;;;;5094179;28;20288;-76
2021/10/07 02:10:40;;;;;;;5.27;2.10;;;10.20;1.00;;;;;;5094478;28;20259;-74
2021/10/07 02:13:08;;;;;;;8.93;2.87;;;10.20;1.00;;;;;;5093698;28;20278;-75
2021/10/07 02:15:35;;;;;;;5.67;2.20;;;10.30;1.00;;;;;;5094814;28;20247;-74
2021/10/07 02:18:03;;;;;;;5.53;4.20;;;10.30;1.00;;;;;;5093983;28;20295;-73
2021/10/07 02:20:30;;;;;;;7.30;3.03;;;10.30;1.00;;;;;;5094619;28;20250;-73
2021/10/07 02:22:57;;;;;;;3.83;2.40;;;10.30;1.00;;;;;;5094803;28;20251;-73
2021/10/07 02:25:24;;;;;;;5.27;2.70;;;10.30;1.00;;;;;;5093839;28;20251;-72
2021/10/07 02:27:51;;;;;;;5.07;2.77;;;10.20;1.00;;;;;;5094091;28;20669;-73
2021/10/07 02:30:20;;;;;;;7.40;2.90;;;10.10;1.00;;;;;;5093601;28;20226;-72
2021/10/07 02:32:47;;;;;;;4.40;2.47;;;10.10;1.00;;;;;;5094242;28;20202;-74
2021/10/07 02:35:15;;;;;;;6.80;2.87;;;10.10;1.00;;;;;;5093790;28;20289;-74
2021/10/07 02:37:42;;;;;;;3.90;2.40;;;10.10;1.00;;;;;;5094132;28;20259;-74
2021/10/07 02:40:11;;;;;;;7.90;3.20;;;10.20;1.00;;;;;;5093427;28;20209;-74
2021/10/07 02:42:38;;;;;;;3.83;2.93;;;10.10;1.00;;;;;;5093705;28;20210;-73
2021/10/07 02:45:07;;;;;;;5.70;2.20;;;10.10;1.00;;;;;;5093804;28;20550;-74
2021/10/07 02:47:35;;;;;;;5.13;2.93;;;10.10;1.00;;;;;;5093815;28;20201;-73
2021/10/07 02:50:02;;;;;;;6.07;3.10;;;10.00;1.00;;;;;;5093472;28;20205;-74
2021/10/07 02:52:29;;;;;;;6.10;3.03;;;9.90;1.00;;;;;;5093566;28;20255;-76
2021/10/07 02:54:56;;;;;;;4.67;3.23;;;10.00;1.00;;;;;;5094389;28;20233;-74
2021/10/07 02:57:23;;;;;;;5.53;2.20;;;10.10;1.00;;;;;;5092837;28;20251;-74
2021/10/07 02:59:50;;;;;;;4.97;2.73;;;10.10;1.00;;;;;;5093877;28;20209;-74
2021/10/07 03:02:18;;;;;;;6.27;3.00;;;10.00;1.00;;;;;;5093295;28;20284;-74
2021/10/07 03:04:46;;;;;;;8.40;3.10;;;10.10;1.00;;;;;;5093405;28;20205;-72
2021/10/07 03:07:14;;;;;;;9.03;2.57;;;10.10;1.00;;;;;;5093382;28;20286;-72
2021/10/07 03:09:42;;;;;;;5.80;2.53;;;10.10;1.00;;;;;;5093191;28;20609;-73
2021/10/07 03:12:09;;;;;;;9.10;2.83;;;10.10;1.00;;;;;;5093197;28;20212;-72
2021/10/07 03:14:39;;;;;;;5.87;2.87;;;10.00;1.00;;;;;;5093065;28;20225;-73
2021/10/07 03:17:06;;;;;;;8.17;3.00;;;9.90;1.00;;;;;;5092385;28;20708;-72
2021/10/07 03:19:33;;;;;;;7.03;2.93;;;9.90;1.00;;;;;;5092882;28;20202;-72
2021/10/07 03:22:01;;;;;;;4.17;2.70;;;9.90;1.00;;;;;;5092865;28;20262;-73
2021/10/07 03:24:29;;;;;;;3.80;2.57;;;9.90;1.00;;;;;;5093457;28;20205;-73
2021/10/07 03:26:56;;;;;;;7.73;3.67;;;9.80;1.00;;;;;;5093187;28;20252;-73
2021/10/07 03:29:23;;;;;;;8.43;2.80;;;9.90;1.00;;;;;;5092824;28;20205;-73
2021/10/07 03:31:50;;;;;;;4.33;2.83;;;10.00;1.00;;;;;;5092768;28;20213;-73
2021/10/07 03:34:17;;;;;;;3.70;2.30;;;9.90;1.00;;;;;;5092696;28;20649;-73
2021/10/07 03:36:44;;;;;;;6.90;2.90;;;9.90;1.00;;;;;;5092915;28;20665;-73
2021/10/07 03:39:12;;;;;;;7.23;2.50;;;9.90;1.00;;;;;;5092657;28;20263;-73
2021/10/07 03:41:39;;;;;;;3.93;2.20;;;9.90;1.00;;;;;;5093069;28;20282;-73
2021/10/07 03:44:07;;;;;;;10.43;2.47;;;10.00;1.00;;;;;;5092432;28;20282;-74
2021/10/07 03:46:34;;;;;;;3.93;2.33;;;10.00;1.00;;;;;;5092866;28;20292;-73
2021/10/07 03:49:01;;;;;;;3.77;2.07;;;10.00;1.00;;;;;;5092582;28;20205;-74
2021/10/07 03:51:28;;;;;;;4.53;2.10;;;10.00;1.00;;;;;;5092929;28;20209;-74
2021/10/07 03:53:55;;;;;;;6.37;2.67;;;9.90;1.00;;;;;;5092408;28;20290;-74
2021/10/07 03:56:23;;;;;;;4.60;2.47;;;9.90;1.00;;;;;;5092200;28;20555;-74
2021/10/07 03:58:50;;;;;;;6.27;2.77;;;9.90;1.00;;;;;;5092535;28;20205;-73
2021/10/07 04:01:17;;;;;;;5.77;3.30;;;9.90;1.00;;;;;;5077822;28;20734;-73
2021/10/07 04:03:45;;;;;;;5.63;2.50;;;9.90;1.00;;;;;;5092687;28;20209;-74
2021/10/07 04:06:12;;;;;;;6.50;3.20;;;9.80;1.00;;;;;;5091896;28;20292;-74
2021/10/07 04:08:39;;;;;;;3.57;2.03;;;9.90;1.00;;;;;;5092403;28;20597;-73
2021/10/07 04:11:06;;;;;;;5.73;2.47;;;9.80;1.00;;;;;;5091831;28;20753;-73
2021/10/07 04:13:34;;;;;;;4.20;2.60;;;9.80;1.00;;;;;;5092142;28;20255;-74
2021/10/07 04:16:01;;;;;;;4.80;2.83;;;9.80;1.00;;;;;;5091908;28;20267;-74
2021/10/07 04:18:28;;;;;;;4.93;3.40;;;9.70;1.00;;;;;;5092548;28;20258;-74
2021/10/07 04:20:55;;;;;;;7.83;2.40;;;9.70;1.00;;;;;;5092369;28;20657;-74
2021/10/07 04:23:22;;;;;;;3.83;2.63;;;9.70;1.00;;;;;;5091475;28;20256;-72
2021/10/07 04:25:49;;;;;;;4.33;3.33;;;9.70;1.00;;;;;;5092098;28;20263;-73
2021/10/07 04:28:16;;;;;;;3.03;2.20;;;9.70;1.00;;;;;;5091271;28;20259;-73
2021/10/07 04:30:45;;;;;;;6.30;2.27;;;9.70;1.00;;;;;;5091977;28;20274;-72
2021/10/07 04:33:12;;;;;;;4.37;2.60;;;9.70;1.00;;;;;;5091489;28;20270;-72
2021/10/07 04:35:40;;;;;;;5.80;2.40;;;9.70;1.00;;;;;;5091555;28;20229;-71
2021/10/07 04:38:09;;;;;;;3.93;2.20;;;9.60;1.00;;;;;;5091329;28;20209;-72
2021/10/07 04:40:37;;;;;;;5.80;2.67;;;9.60;1.00;;;;;;5091314;28;20742;-72
2021/10/07 04:43:04;;;;;;;7.10;2.47;;;9.40;1.00;;;;;;5091660;28;20292;-72
2021/10/07 04:45:32;;;;;;;4.37;2.47;;;9.60;1.00;;;;;;5091552;28;20217;-72
2021/10/07 04:48:00;;;;;;;9.37;2.73;;;9.60;1.00;;;;;;5091751;28;20254;-72
2021/10/07 04:50:28;;;;;;;3.50;2.10;;;9.60;1.00;;;;;;5074224;28;20697;-72
2021/10/07 04:52:55;;;;;;;3.43;2.30;;;9.60;1.00;;;;;;5085586;28;20202;-72
2021/10/07 04:55:22;;;;;;;3.50;2.03;;;9.60;1.00;;;;;;5074395;28;20303;-71
2021/10/07 04:57:49;;;;;;;3.73;2.40;;;9.60;1.00;;;;;;5090987;28;20678;-71
2021/10/07 05:00:16;;;;;;;3.97;2.53;;;9.60;1.00;;;;;;5075860;28;20209;-70
2021/10/07 05:02:45;;;;;;;4.07;2.73;;;9.60;1.00;;;;;;5087039;28;20258;-70
2021/10/07 05:05:14;;;;;;;3.27;1.80;;;9.60;1.00;;;;;;5071534;28;20205;-71
2021/10/07 05:07:43;;;;;;;5.30;1.70;;;9.60;1.00;;;;;;5089602;28;20210;-71
2021/10/07 05:10:11;;;;;;;2.77;2.00;;;9.50;1.00;;;;;;5090201;28;20205;-71
2021/10/07 05:12:40;;;;;;;4.33;2.47;;;9.50;1.00;;;;;;5083783;28;20199;-71
2021/10/07 05:15:08;;;;;;;4.87;2.63;;;9.40;1.00;;;;;;5076395;28;20265;-71
2021/10/07 05:17:35;;;;;;;5.90;3.60;;;9.40;1.00;;;;;;5066177;28;20584;-73
2021/10/07 05:20:03;;;;;;;5.47;2.40;;;9.30;1.00;;;;;;5059774;28;20272;-72
2021/10/07 05:22:31;;;;;;;4.90;3.60;;;9.40;1.00;;;;;;5067249;28;20206;-73
2021/10/07 05:24:58;;;;;;;8.33;2.73;;;9.30;1.00;;;;;;5054600;28;20237;-73
2021/10/07 05:27:25;;;;;;;6.40;2.73;;;9.20;1.00;;;;;;5071422;28;20202;-74
2021/10/07 05:29:52;;;;;;;4.33;3.00;;;9.20;1.00;;;;;;5070463;28;20256;-73
2021/10/07 05:32:19;;;;;;;10.30;3.80;;;9.30;1.00;;;;;;5071292;28;20202;-72
2021/10/07 05:34:46;;;;;;;4.43;3.17;;;9.30;1.00;;;;;;5062754;28;20227;-72
2021/10/07 05:37:13;;;;;;;4.97;2.90;;;9.30;1.00;;;;;;5081648;28;20202;-73
2021/10/07 05:39:41;;;;;;;6.57;2.87;;;9.30;1.00;;;;;;5085593;28;20213;-72
2021/10/07 05:42:08;;;;;;;7.77;2.93;;;9.30;1.00;;;;;;5081258;28;20218;-72
2021/10/07 05:44:35;;;;;;;6.33;3.20;;;9.30;1.00;;;;;;5086005;28;20245;-72
2021/10/07 05:47:03;;;;;;;6.40;3.03;;;9.30;1.00;;;;;;5070091;28;20605;-72
2021/10/07 05:49:30;;;;;;;6.03;3.73;;;9.30;1.00;;;;;;5072227;28;20206;-73
2021/10/07 05:51:57;;;;;;;5.00;2.77;;;9.30;1.00;;;;;;5071807;28;20210;-73
2021/10/07 05:54:24;;;;;;;5.27;3.30;;;9.30;1.00;;;;;;5060179;28;20283;-73
2021/10/07 05:56:52;;;;;;;4.77;2.97;;;9.30;1.00;;;;;;5069845;28;20677;-75
2021/10/07 05:59:19;;;;;;;4.33;3.70;;;9.30;1.00;;;;;;5074128;28;20219;-74
2021/10/07 06:01:46;;;;;;;7.67;2.90;;;9.40;1.00;;;;;;5068305;28;20275;-75
2021/10/07 06:04:13;;;;;;;6.70;3.53;;;9.40;1.00;;;;;;5073152;28;20206;-72
2021/10/07 06:06:40;;;;;;;4.50;2.73;;;9.60;1.00;;;;;;5066831;28;20210;-73
2021/10/07 06:09:08;;;;;;;4.90;2.80;;;9.50;1.00;;;;;;5066314;28;20210;-73
2021/10/07 06:11:36;;;;;;;7.07;3.10;;;9.30;1.00;;;;;;5057493;28;20210;-75
2021/10/07 06:14:06;;;;;;;6.70;2.80;;;9.20;1.00;;;;;;5070130;28;20210;-74
2021/10/07 06:16:38;;;;;;;3.93;2.47;;;9.30;1.00;;;;;;5071607;28;20263;-73
2021/10/07 06:19:06;;;;;;;8.90;2.87;;;9.40;1.00;;;;;;5090081;28;20205;-73
2021/10/07 06:21:35;;;;;;;8.17;3.80;;;9.40;1.00;;;;;;5090403;28;20256;-74
2021/10/07 06:24:03;;;;;;;7.17;3.13;;;9.40;1.00;;;;;;5090212;28;20289;-73
2021/10/07 06:26:30;;;;;;;4.50;3.13;;;9.30;1.00;;;;;;5090515;28;20216;-74
2021/10/07 06:28:57;;;;;;;6.53;2.57;;;9.30;1.00;;;;;;5090316;28;20205;-73
2021/10/07 06:31:25;;;;;;;7.43;3.00;;;9.30;1.00;;;;;;5089455;28;20213;-73
2021/10/07 06:33:52;;;;;;;4.37;3.00;;;9.30;1.00;;;;;;5075287;28;20201;-73
2021/10/07 06:36:19;;;;;;;7.33;3.10;;;9.30;1.00;;;;;;5066871;28;20321;-73
2021/10/07 06:38:46;;;;;;;4.23;3.03;;;9.40;1.00;;;;;;5056812;28;20207;-74
2021/10/07 06:41:14;;;;;;;3.77;3.47;;;9.50;1.00;;;;;;5057274;28;20214;-73
2021/10/07 06:43:41;;;;;;;9.13;3.73;;;9.50;1.00;;;;;;5070804;28;20228;-73
2021/10/07 06:46:08;;;;;;;6.80;4.27;;;9.70;1.00;;;;;;5073376;28;20617;-73
2021/10/07 06:48:36;;;;;;;5.73;3.53;;;9.70;1.00;;;;;;5074319;28;20234;-74
2021/10/07 06:51:09;;;;;;;7.27;4.00;;;9.60;1.00;;;;;;5080397;28;20209;-78
2021/10/07 06:53:36;;;;;;;5.20;3.70;;;9.70;1.00;;;;;;5076323;28;20666;-75
2021/10/07 06:56:04;;;;;;;6.53;3.77;;;9.80;1.00;;;;;;5081786;28;20233;-76
2021/10/07 06:58:31;;;;;;;8.00;4.43;;;9.80;1.00;;;;;;5072064;28;20210;-75
2021/10/07 07:00:58;;;;;;;9.93;3.13;;;9.90;1.00;;;;;;5080946;28;20270;-73
2021/10/07 07:03:25;;;;;;;8.63;3.87;;;10.20;1.00;;;;;;5077273;28;20206;-75
2021/10/07 07:05:53;;;;;;;10.07;2.80;;;10.20;1.00;;;;;;5078773;28;20206;-74
2021/10/07 07:08:20;;;;;;;6.13;3.33;;;10.30;1.00;;;;;;5078421;28;20669;-73
2021/10/07 07:10:47;;;;;;;8.43;2.87;;;10.30;1.00;;;;;;5077323;28;20251;-75
2021/10/07 07:13:16;;;;;;;7.60;2.57;;;10.40;1.00;;;;;;5080231;28;20205;-73
2021/10/07 07:15:43;;;;;;;8.53;3.17;;;10.50;1.00;;;;;;5077142;28;20316;-76
2021/10/07 07:18:10;;;;;;;4.43;3.00;;;10.50;1.00;;;;;;5091503;28;20201;-76
2021/10/07 07:20:37;;;;;;;7.30;3.27;;;10.50;1.00;;;;;;5093315;28;20255;-74
2021/10/07 07:23:10;;;;;;;5.70;2.60;;;10.60;1.00;;;;;;5073946;28;20272;-74
2021/10/07 07:25:37;;;;;;;4.20;2.30;;;10.60;1.00;;;;;;5070388;28;20640;-74
2021/10/07 07:28:04;;;;;;;5.37;2.43;;;10.70;1.00;;;;;;5076873;28;20210;-74
2021/10/07 07:30:31;;;;;;;4.70;2.87;;;10.80;1.00;;;;;;5085732;28;20725;-75
2021/10/07 07:32:58;;;;;;;7.27;3.83;;;10.90;1.00;;;;;;5084084;28;20214;-74
2021/10/07 07:35:29;;;;;;;5.70;2.97;;;11.20;1.00;;;;;;5079319;28;20291;-76
2021/10/07 07:37:56;;;;;;;7.17;3.00;;;11.20;1.00;;;;;;5079858;28;20205;-74
2021/10/07 07:40:25;;;;;;;4.80;2.43;;;11.40;1.00;;;;;;5080491;28;20567;-74
2021/10/07 07:42:52;;;;;;;6.90;2.38;;;11.70;1.00;;;;;;5078495;28;20210;-74
2021/10/07 07:45:19;;;;;;;9.80;2.90;;;11.80;1.00;;;;;;5078601;28;20206;-73
2021/10/07 07:47:46;;;;;;;7.00;2.57;;;12.00;1.00;;;;;;5083208;28;20575;-72
2021/10/07 07:50:18;;;;;;;6.07;1.77;;;12.00;1.00;;;;;;5077289;28;20699;-75
2021/10/07 07:52:45;;;;;;;4.93;3.25;;;11.90;1.00;;;;;;5081776;28;20730;-75
2021/10/07 07:55:12;;;;;;;5.10;2.57;;;11.90;1.00;;;;;;5077512;28;20230;-73
2021/10/07 07:57:41;;;;;;;4.70;2.50;;;11.90;1.00;;;;;;5081381;28;20263;-72
2021/10/07 08:00:09;;;;;;;4.05;2.25;;;12.10;1.00;;;;;;5071629;28;20275;-72
2021/10/07 08:02:36;;;;;;;2.63;1.80;;;12.30;99.90;;;;;;5080377;28;20699;-70
2021/10/07 08:05:04;;;;;;;7.28;3.45;;;12.20;1.00;;;;;;5079187;28;20238;-87
2021/10/07 08:07:31;;;;;;;7.88;3.42;;;12.40;1.00;;;;;;5078773;28;20681;-71
2021/10/07 08:09:58;;;;;;;6.53;2.80;;;12.70;1.00;;;;;;5081995;28;20201;-72
2021/10/07 08:12:25;;;;;;;8.57;3.03;;;12.70;1.00;;;;;;5077243;28;20210;-72
2021/10/07 08:14:55;;;;;;;4.82;2.55;;;12.60;1.00;;;;;;5082492;28;20209;-72
2021/10/07 08:17:22;;;;;;;8.50;2.97;;;12.60;1.00;;;;;;5083330;28;20202;-72
2021/10/07 08:19:49;;;;;;;5.13;2.33;;;12.70;1.00;;;;;;5092169;28;20224;-72
2021/10/07 08:22:16;;;;;;;5.05;2.13;;;12.90;1.00;;;;;;5091839;28;20657;-72
2021/10/07 08:24:43;;;;;;;5.78;2.67;;;13.10;1.00;;;;;;5092039;28;20732;-72
2021/10/07 08:27:10;;;;;;;7.75;2.75;;;13.20;1.00;;;;;;5091349;28;20228;-73
2021/10/07 08:29:37;;;;;;;3.63;2.35;;;13.30;1.00;;;;;;5091992;28;20205;-72
2021/10/07 08:32:07;;;;;;;5.28;2.88;;;13.30;1.00;;;;;;5091141;28;20251;-72
2021/10/07 08:34:34;;;;;;;6.18;2.90;;;13.40;1.00;;;;;;5077016;28;20245;-72
2021/10/07 08:37:01;;;;;;;5.85;2.35;;;13.40;1.00;;;;;;5076424;28;20237;-72
2021/10/07 08:39:28;;;;;;;4.97;2.90;;;13.50;1.00;;;;;;5087872;28;20252;-76
2021/10/07 08:41:56;;;;;;;2.90;2.58;;;13.70;1.00;;;;;;5086551;28;20213;-75
2021/10/07 08:44:23;;;;;;;5.72;2.63;;;14.00;1.00;;;;;;5091180;28;20228;-73
2021/10/07 08:46:53;;;;;;;4.25;2.67;;;14.20;99.90;;;;;;5091820;28;20266;-74
2021/10/07 08:49:23;;;;;;;5.03;2.60;;;14.20;99.90;;;;;;5091183;28;20248;-74
2021/10/07 08:51:51;;;;;;;5.07;2.10;;;14.30;99.90;;;;;;5085812;28;20213;-74
2021/10/07 08:54:18;;;;;;;5.53;1.75;;;14.30;99.90;;;;;;5089620;28;20258;-73
2021/10/07 08:56:46;;;;;;;5.88;1.45;;;14.20;99.90;;;;;;5091578;28;20256;-74
2021/10/07 08:59:14;;;;;;;3.38;1.30;;;14.20;99.90;;;;;;5075048;28;20625;-75
2021/10/07 09:01:42;;;;;;;5.45;1.42;;;14.30;99.90;;;;;;5090380;28;20205;-76
2021/10/07 09:04:26;;;;;;;4.97;1.00;;;14.30;99.90;;;;;;5088482;28;20582;-75
2021/10/07 09:06:54;;;;;;;4.43;1.10;;;14.50;99.90;;;;;;5089615;28;20209;-74
2021/10/07 09:09:22;;;;;;;4.00;1.02;;;14.60;99.90;;;;;;5086217;28;20257;-74
2021/10/07 09:11:54;;;;;;;5.20;2.45;;;14.70;99.90;;;;;;5089034;28;20536;-74
2021/10/07 09:14:26;;;;;;;7.68;1.83;;;14.70;99.90;;;;;;5084703;28;20206;-74
2021/10/07 09:16:55;;;;;;;2.92;1.10;;;14.90;99.90;;;;;;5087092;28;20233;-74
2021/10/07 09:19:25;;;;;;;2.08;1.27;;;15.00;99.90;;;;;;5090194;28;20217;-75
2021/10/07 09:21:54;;;;;;;4.93;1.00;;;15.10;99.90;;;;;;5089223;28;20216;-74
2021/10/07 09:24:38;;;;;;;6.78;3.08;;;15.30;99.90;;;;;;5089569;28;20221;-74
2021/10/07 09:27:11;;;;;;;3.80;1.83;;;15.50;99.90;;;;;;5084897;28;20749;-78
2021/10/07 09:29:41;;;;;;;7.15;2.35;;;15.50;99.90;;;;;;5078952;28;20289;-76
2021/10/07 09:32:09;;;;;;;3.65;1.80;;;15.50;99.90;;;;;;5082946;28;20201;-75
2021/10/07 09:34:49;;;;;;;4.85;2.42;;;15.60;99.90;;;;;;5082674;28;20209;-77
2021/10/07 09:37:32;;;;;;;4.78;1.40;;;15.60;99.90;;;;;;5082298;28;20262;-75
2021/10/07 09:40:03;;;;;;;2.47;1.42;;;15.80;99.90;;;;;;5078678;28;20206;-75
2021/10/07 09:42:33;;;;;;;7.45;1.15;;;16.00;99.90;;;;;;5082647;28;20218;-75
2021/10/07 09:45:08;;;;;;;2.75;1.23;;;16.40;99.90;;;;;;5076812;28;20726;-74
2021/10/07 09:47:37;;;;;;;4.97;0.82;;;16.90;99.90;;;;;;5080932;28;20588;-76
2021/10/07 09:50:28;;;;;;;3.58;1.73;;;17.30;99.90;;;;;;5066681;28;20206;-75
2021/10/07 09:53:00;;;;;;;4.78;1.55;;;19.00;99.90;;;;;;5061885;28;20202;-72
2021/10/07 09:55:31;;;;;;;3.65;1.55;;;20.50;99.90;;;;;;5074086;28;20202;-73
2021/10/07 09:58:01;;;;;;;3.13;1.40;;;20.20;99.90;;;;;;5075984;28;20634;-73
2021/10/07 10:00:30;;;;;;;4.18;1.15;;;18.40;99.90;;;;;;5073612;28;20207;-73
2021/10/07 10:02:59;;;;;;;2.88;1.30;;;18.20;99.90;;;;;;5074986;28;20198;-73
2021/10/07 10:05:29;;;;;;;4.60;1.50;;;18.00;99.90;;;;;;5072422;28;20587;-73
2021/10/07 10:07:56;;;;;;;16.73;2.90;;;18.30;99.90;;;;;;5072904;28;20735;-73
2021/10/07 10:10:23;;;;;;;3.00;1.30;;;18.60;99.90;;;;;;5070829;28;20206;-72
2021/10/07 10:12:50;;;;;;;2.33;1.02;;;18.40;99.90;;;;;;5071132;28;20250;-72
2021/10/07 10:15:20;;;;;;;5.57;1.40;;;21.10;99.90;;;;;;5069726;28;20723;-72
2021/10/07 10:17:47;;;;;;;2.28;1.25;;;19.60;99.90;;;;;;5085942;28;20300;-72
2021/10/07 10:20:19;;;;;;;3.00;0.55;;;18.20;99.90;;;;;;5088285;28;20205;-76
2021/10/07 10:22:51;;;;;;;3.40;1.00;;;17.70;99.90;;;;;;5089186;28;20665;-75
2021/10/07 10:25:18;;;;;;;4.13;1.38;;;17.50;99.90;;;;;;5086290;28;20273;-73
2021/10/07 10:28:04;;;;;;;4.68;1.05;;;17.40;99.90;;;;;;5089549;28;20741;-78
2021/10/07 10:30:40;;;;;;;4.47;1.13;;;17.50;99.90;;;;;;5089113;28;20318;-73
2021/10/07 10:33:07;;;;;;;2.60;1.05;;;17.50;99.90;;;;;;5088812;28;20292;-72
2021/10/07 10:35:40;;;;;;;3.95;1.45;;;17.50;99.90;;;;;;5087485;28;20498;-72
2021/10/07 10:38:12;;;;;;;3.55;0.85;;;17.50;99.90;;;;;;5088026;28;20202;-71
2021/10/07 10:40:40;;;;;;;7.68;1.00;;;17.50;99.90;;;;;;5085465;28;20206;-75
2021/10/07 10:43:34;;;;;;;3.28;1.33;;;17.50;99.90;;;;;;5070000;28;20206;-72
2021/10/07 10:46:14;;;;;;;3.28;1.40;;;17.50;99.90;;;;;;5073359;28;20221;-73
2021/10/07 10:49:01;;;;;;;3.70;1.48;;;17.50;99.90;;;;;;5073974;28;20205;-75
2021/10/07 10:51:36;;;;;;;1.75;0.80;;;17.40;99.90;;;;;;5058757;28;20261;-73
2021/10/07 10:54:11;;;;;;;4.05;1.42;;;17.30;99.90;;;;;;5072841;28;20210;-75
2021/10/07 10:56:58;;;;;;;2.83;0.95;;;17.40;99.90;;;;;;5074958;28;20255;-74
2021/10/07 10:59:27;;;;;;;1.88;0.68;;;17.60;99.90;;;;;;5074024;28;20289;-73
2021/10/07 11:02:25;;;;;;;1.77;0.88;;;17.60;99.90;;;;;;5072910;28;20206;-73
2021/10/07 11:04:54;;;;;;;4.53;0.93;;;17.60;99.90;;;;;;5061629;28;20214;-76
2021/10/07 11:07:24;;;;;;;1.85;0.70;;;17.60;99.90;;;;;;5073052;28;20636;-73
2021/10/07 11:09:56;;;;;;;2.30;0.75;;;17.60;99.90;;;;;;5073524;28;20236;-73
2021/10/07 11:12:24;;;;;;;3.50;1.05;;;17.60;99.90;;;;;;5072875;28;20637;-73
2021/10/07 11:14:51;;;;;;;4.40;1.17;;;17.70;99.90;;;;;;5073496;28;20213;-73
2021/10/07 11:17:18;;;;;;;1.75;0.68;;;17.80;99.90;;;;;;5080709;28;20736;-74
2021/10/07 11:19:46;;;;;;;1.55;0.70;;;17.80;99.90;;;;;;5093384;28;20236;-73
2021/10/07 11:22:14;;;;;;;4.20;0.75;;;17.80;99.90;;;;;;5093154;28;20206;-72
2021/10/07 11:24:52;;;;;;;2.47;0.82;;;17.90;99.90;;;;;;5093251;28;20201;-73
2021/10/07 11:27:36;;;;;;;1.75;0.77;;;17.80;99.90;;;;;;5093134;28;20656;-72
2021/10/07 11:30:05;;;;;;;3.78;1.23;;;17.80;99.90;;;;;;5069300;28;20210;-73
2021/10/07 11:32:32;;;;;;;4.88;0.93;;;17.90;99.90;;;;;;5090512;28;20202;-73
2021/10/07 11:35:05;;;;;;;1.52;0.88;;;18.00;99.90;;;;;;5079777;28;20283;-72
2021/10/07 11:37:57;;;;;;;1.73;0.73;;;18.00;99.90;;;;;;5065321;28;20786;-73
2021/10/07 11:40:27;;;;;;;1.77;0.80;;;18.00;99.90;;;;;;5084292;28;20206;-73
2021/10/07 11:42:57;;;;;;;3.95;0.80;;;18.00;99.90;;;;;;5088806;28;20213;-72
2021/10/07 11:45:27;;;;;;;1.38;1.10;;;18.10;99.90;;;;;;5083406;28;20256;-72
2021/10/07 11:47:54;;;;;;;3.63;2.03;;;18.20;99.90;;;;;;5083688;28;20595;-73
2021/10/07 11:50:23;;;;;;;4.97;1.77;;;18.20;99.90;;;;;;5080718;28;20545;-72
2021/10/07 11:52:51;;;;;;;2.60;1.20;;;18.20;99.90;;;;;;5078911;28;20327;-73
2021/10/07 11:55:19;;;;;;;2.67;1.10;;;18.40;99.90;;;;;;5080190;28;20233;-78
2021/10/07 11:57:49;;;;;;;1.50;0.88;;;18.50;99.90;;;;;;5084061;28;20233;-73
2021/10/07 12:00:37;;;;;;;4.95;1.33;;;18.50;99.90;;;;;;5079316;28;20202;-73
2021/10/07 12:03:15;;;;;;;4.68;1.52;;;18.60;99.90;;;;;;5072212;28;20209;-74
2021/10/07 12:05:45;;;;;;;3.40;0.80;;;18.60;99.90;;;;;;5077767;28;20293;-80
2021/10/07 12:08:15;;;;;;;2.35;0.60;;;18.60;99.90;;;;;;5080500;28;20220;-72
2021/10/07 12:10:43;;;;;;;1.25;0.63;;;18.70;99.90;;;;;;5077061;28;20202;-73
2021/10/07 12:13:15;;;;;;;2.20;1.30;;;18.70;99.90;;;;;;5076662;28;20608;-77
2021/10/07 12:15:50;;;;;;;3.75;1.08;;;18.50;99.90;;;;;;5076284;28;20202;-81
2021/10/07 12:18:17;;;;;;;3.13;0.90;;;18.50;99.90;;;;;;5083679;28;20228;-80
2021/10/07 12:21:01;;;;;;;2.70;0.60;;;18.50;99.90;;;;;;5083594;28;20621;-79
2021/10/07 12:23:28;;;;;;;3.13;1.40;;;18.50;99.90;;;;;;5092513;28;20233;-79
2021/10/07 12:25:58;;;;;;;2.50;1.00;;;18.70;99.90;;;;;;5092847;28;20209;-80
2021/10/07 12:28:26;;;;;;;0.93;0.57;;;18.70;99.90;;;;;;5080612;28;20222;-78
2021/10/07 12:30:58;;;;;;;1.70;0.95;;;18.70;99.90;;;;;;5076549;28;20617;-80
2021/10/07 12:33:29;;;;;;;3.50;0.60;;;18.50;99.90;;;;;;5091932;28;20578;-78
2021/10/07 12:36:03;;;;;;;1.65;0.52;;;18.60;99.90;;;;;;5079981;28;20733;-79
2021/10/07 12:38:46;;;;;;;2.22;0.90;;;18.60;99.90;;;;;;5091740;28;20668;-79
2021/10/07 12:41:13;;;;;;;4.75;0.95;;;18.70;99.90;;;;;;5079833;28;20610;-78
2021/10/07 12:43:51;;;;;;;2.40;0.50;;;18.80;99.90;;;;;;5090659;28;20258;-78
2021/10/07 12:46:21;;;;;;;2.97;0.73;;;18.90;99.90;;;;;;5075982;28;20631;-77
2021/10/07 12:48:49;;;;;;;3.65;1.23;;;19.10;99.90;;;;;;5086537;28;20209;-77
2021/10/07 12:51:17;;;;;;;2.05;1.15;;;19.00;99.90;;;;;;5082316;28;20731;-77
2021/10/07 12:53:46;;;;;;;2.72;0.73;;;18.90;99.90;;;;;;5085150;28;20680;-77
2021/10/07 12:56:15;;;;;;;4.35;1.05;;;19.00;99.90;;;;;;5091314;28;20628;-77
2021/10/07 12:58:50;;;;;;;3.08;0.80;;;19.10;99.90;;;;;;5091440;28;20201;-77
2021/10/07 13:01:19;;;;;;;1.73;0.88;;;19.00;99.90;;;;;;5091504;28;20266;-77
2021/10/07 13:03:48;;;;;;;2.00;0.70;;;19.00;99.90;;;;;;5091696;28;20205;-77
2021/10/07 13:06:29;;;;;;;2.22;1.15;;;19.00;99.90;;;;;;5090741;28;20205;-77